Time;durP1;ratioP1;P1;durP2;ratioP2;P2;SDS_P1;SDS_P2;PMS_P1;PMS_P2;Temp;Humidity;BMP_temperature;BMP_pressure;BME280_temperature;BME280_humidity;BME280_pressure;Samples;Min_cycle;Max_cycle;Signal;HPM_P1;HPM_P2
2022/09/28 00:00:08;;;;;;;14.07;10.37;;;8.30;93.80;;;;;;5016241;28;20204;-85
2022/09/28 00:02:34;;;;;;;19.10;11.13;;;8.30;93.70;;;;;;5017561;28;20247;-86
2022/09/28 00:05:01;;;;;;;15.23;11.50;;;8.30;93.70;;;;;;5016295;28;20201;-85
2022/09/28 00:07:27;;;;;;;13.60;10.20;;;8.30;93.70;;;;;;5017679;28;20244;-87
2022/09/28 00:09:52;;;;;;;13.57;9.90;;;8.30;93.60;;;;;;5016476;28;20177;-85
2022/09/28 00:12:18;;;;;;;15.03;9.20;;;8.30;93.60;;;;;;5015830;28;20258;-84
2022/09/28 00:14:44;;;;;;;14.43;10.20;;;8.30;93.60;;;;;;5015810;28;20231;-85
2022/09/28 00:17:11;;;;;;;14.27;10.27;;;8.20;93.60;;;;;;5017243;28;20174;-85
2022/09/28 00:19:38;;;;;;;15.17;10.30;;;8.20;93.60;;;;;;5017364;28;20169;-86
2022/09/28 00:22:05;;;;;;;12.90;9.83;;;8.20;93.60;;;;;;5017145;28;20193;-86
2022/09/28 00:24:30;;;;;;;11.30;10.00;;;8.20;93.50;;;;;;5017358;28;20204;-86
2022/09/28 00:26:57;;;;;;;16.40;9.93;;;8.20;93.60;;;;;;5016222;28;20173;-86
2022/09/28 00:29:28;;;;;;;11.93;9.43;;;8.10;93.60;;;;;;5015713;28;20217;-86
2022/09/28 00:31:58;;;;;;;13.10;9.90;;;8.10;93.60;;;;;;5015735;28;20197;-86
2022/09/28 00:34:25;;;;;;;14.93;11.10;;;8.00;93.60;;;;;;5016301;28;20161;-86
2022/09/28 00:36:50;;;;;;;35.33;15.13;;;8.10;93.60;;;;;;5015959;28;20178;-86
2022/09/28 00:39:16;;;;;;;16.03;10.40;;;8.20;93.70;;;;;;5016240;28;20545;-86
2022/09/28 00:41:42;;;;;;;12.93;9.00;;;8.20;93.60;;;;;;5017120;28;20197;-87
2022/09/28 00:44:32;;;;;;;17.03;11.70;;;8.30;93.60;;;;;;5015795;28;20208;-86
2022/09/28 00:47:18;;;;;;;14.60;10.80;;;8.30;93.50;;;;;;5015965;28;20218;-86
2022/09/28 00:50:05;;;;;;;12.80;9.73;;;8.30;93.50;;;;;;5015973;28;20577;-87
2022/09/28 00:52:52;;;;;;;16.67;10.60;;;8.30;93.40;;;;;;5015872;28;20201;-88
2022/09/28 00:55:24;;;;;;;12.10;9.93;;;8.30;93.40;;;;;;5015547;28;20169;-86
2022/09/28 00:57:54;;;;;;;16.40;13.87;;;8.30;93.30;;;;;;5015388;28;20265;-86
2022/09/28 01:00:20;;;;;;;12.30;9.57;;;8.30;93.20;;;;;;5017067;28;20290;-87
2022/09/28 01:02:47;;;;;;;14.87;11.23;;;8.20;93.20;;;;;;5016589;28;20196;-87
2022/09/28 01:05:13;;;;;;;11.03;8.83;;;8.00;93.00;;;;;;5014385;28;20177;-87
2022/09/28 01:07:40;;;;;;;9.53;8.27;;;7.90;92.90;;;;;;5016934;28;20710;-86
2022/09/28 01:10:06;;;;;;;9.33;6.97;;;7.80;92.80;;;;;;5015579;28;20174;-87
2022/09/28 01:12:32;;;;;;;8.10;7.40;;;7.80;92.90;;;;;;5014919;28;20232;-86
2022/09/28 01:14:59;;;;;;;9.77;7.53;;;7.80;92.80;;;;;;5015197;28;20173;-86
2022/09/28 01:17:39;;;;;;;8.40;7.63;;;7.70;92.70;;;;;;5016140;28;20181;-87
2022/09/28 01:20:34;;;;;;;9.80;7.93;;;7.70;92.70;;;;;;5015183;28;20280;-87
2022/09/28 01:23:31;;;;;;;19.83;9.63;;;7.50;92.70;;;;;;5014735;28;20211;-86
2022/09/28 01:26:27;;;;;;;13.20;10.27;;;7.60;92.80;;;;;;5014782;28;20711;-87
2022/09/28 01:29:17;;;;;;;18.60;13.70;;;7.60;92.80;;;;;;5014709;28;20216;-87
2022/09/28 01:31:49;;;;;;;12.43;9.77;;;7.70;92.80;;;;;;5014166;28;20203;-86
2022/09/28 01:34:30;;;;;;;9.90;8.80;;;7.70;92.80;;;;;;5014726;28;20182;-87
2022/09/28 01:37:00;;;;;;;9.80;8.70;;;7.70;92.70;;;;;;5016181;28;20165;-87
2022/09/28 01:39:53;;;;;;;9.13;8.30;;;7.70;92.70;;;;;;5014659;28;20185;-87
2022/09/28 01:42:25;;;;;;;10.87;8.23;;;7.60;92.50;;;;;;5012759;28;20205;-88
2022/09/28 01:44:54;;;;;;;9.53;8.50;;;7.50;92.50;;;;;;5014410;28;20204;-86
2022/09/28 01:47:23;;;;;;;10.83;8.43;;;7.50;92.50;;;;;;5014276;28;20268;-86
2022/09/28 01:49:59;;;;;;;12.03;9.10;;;7.50;92.50;;;;;;5014377;28;20200;-87
2022/09/28 01:52:39;;;;;;;9.80;8.80;;;7.60;92.60;;;;;;5015546;28;20201;-86
2022/09/28 01:55:24;;;;;;;13.60;8.23;;;7.60;92.60;;;;;;5014252;28;20578;-86
2022/09/28 01:58:03;;;;;;;9.83;8.27;;;7.60;92.50;;;;;;5015964;28;20626;-87
2022/09/28 02:00:29;;;;;;;9.80;8.67;;;7.60;92.50;;;;;;5014123;28;20165;-86
2022/09/28 02:03:04;;;;;;;12.77;10.30;;;7.50;92.40;;;;;;5015084;28;20686;-86
2022/09/28 02:05:34;;;;;;;17.67;10.77;;;7.40;92.30;;;;;;5013977;28;20551;-87
2022/09/28 02:08:12;;;;;;;15.27;13.17;;;7.30;92.30;;;;;;5015655;28;20166;-86
2022/09/28 02:10:42;;;;;;;13.83;12.43;;;7.30;92.50;;;;;;5014117;28;20165;-87
2022/09/28 02:13:21;;;;;;;13.20;10.43;;;7.40;92.50;;;;;;5013928;28;20197;-86
2022/09/28 02:15:52;;;;;;;11.57;8.77;;;7.50;92.60;;;;;;5014908;28;20166;-86
2022/09/28 02:18:17;;;;;;;12.60;9.60;;;7.40;92.50;;;;;;5013997;28;20200;-86
2022/09/28 02:20:50;;;;;;;12.83;11.47;;;7.40;92.60;;;;;;5013992;28;20598;-86
2022/09/28 02:23:17;;;;;;;11.93;9.63;;;7.40;92.60;;;;;;5015201;28;20201;-86
2022/09/28 02:25:48;;;;;;;11.97;9.93;;;7.50;92.60;;;;;;5015117;28;20648;-86
2022/09/28 02:28:14;;;;;;;10.10;9.20;;;7.50;92.60;;;;;;5015120;28;20519;-87
2022/09/28 02:30:43;;;;;;;12.60;11.30;;;7.50;92.60;;;;;;5013674;28;20271;-86
2022/09/28 02:33:17;;;;;;;20.87;15.07;;;7.50;92.60;;;;;;5013677;28;20197;-86
2022/09/28 02:35:42;;;;;;;16.73;12.20;;;7.50;92.60;;;;;;5014973;28;20162;-86
2022/09/28 02:38:12;;;;;;;14.20;11.73;;;7.60;92.60;;;;;;5013894;28;20188;-86
2022/09/28 02:40:38;;;;;;;13.93;11.10;;;7.60;92.70;;;;;;5013633;28;20212;-86
2022/09/28 02:43:32;;;;;;;24.07;14.70;;;7.70;92.60;;;;;;5013405;28;20227;-86
2022/09/28 02:46:30;;;;;;;22.57;15.93;;;7.70;92.60;;;;;;5014609;28;20622;-86
2022/09/28 02:49:08;;;;;;;23.10;15.47;;;7.60;92.60;;;;;;5002882;28;20204;-86
2022/09/28 02:51:48;;;;;;;15.30;11.67;;;7.60;92.50;;;;;;5013337;28;20197;-86
2022/09/28 02:54:32;;;;;;;13.70;12.20;;;7.40;92.50;;;;;;5013470;28;20208;-86
2022/09/28 02:57:23;;;;;;;17.30;12.83;;;7.50;92.70;;;;;;5012922;28;20231;-87
2022/09/28 03:00:05;;;;;;;13.80;11.03;;;7.60;92.70;;;;;;5013158;28;20181;-87
2022/09/28 03:03:07;;;;;;;12.33;10.90;;;7.60;92.70;;;;;;5014584;28;20280;-86
2022/09/28 03:05:54;;;;;;;15.07;11.50;;;7.60;92.80;;;;;;4992655;28;20201;-86
2022/09/28 03:08:36;;;;;;;13.80;12.17;;;7.60;92.80;;;;;;5014421;28;20564;-86
2022/09/28 03:11:12;;;;;;;13.13;11.83;;;7.60;92.80;;;;;;5014572;28;20193;-86
2022/09/28 03:13:38;;;;;;;15.10;12.73;;;7.70;92.90;;;;;;5014063;28;20153;-86
2022/09/28 03:16:12;;;;;;;14.20;11.60;;;7.70;92.90;;;;;;5014307;28;20177;-86
2022/09/28 03:18:38;;;;;;;13.10;11.67;;;7.70;92.90;;;;;;5014116;28;20157;-87
2022/09/28 03:21:04;;;;;;;11.90;10.83;;;7.70;92.70;;;;;;5014170;28;20544;-86
2022/09/28 03:23:30;;;;;;;15.40;11.90;;;7.50;92.70;;;;;;5013965;28;20250;-86
2022/09/28 03:25:56;;;;;;;13.03;11.83;;;7.40;92.80;;;;;;5013045;28;20236;-86
2022/09/28 03:28:22;;;;;;;12.87;11.30;;;7.40;92.80;;;;;;5013648;28;20177;-86
2022/09/28 03:30:48;;;;;;;14.43;13.00;;;7.30;92.90;;;;;;5013679;28;20177;-86
2022/09/28 03:33:13;;;;;;;12.63;10.70;;;7.50;93.00;;;;;;5012589;28;20243;-86
2022/09/28 03:35:39;;;;;;;11.30;10.27;;;7.40;92.90;;;;;;5012550;28;20236;-86
2022/09/28 03:38:04;;;;;;;11.70;10.60;;;7.40;92.90;;;;;;5012531;28;20184;-86
2022/09/28 03:40:30;;;;;;;10.30;9.37;;;7.30;92.90;;;;;;5012624;28;20181;-86
2022/09/28 03:42:55;;;;;;;11.10;10.10;;;7.30;92.90;;;;;;5012273;28;20212;-86
2022/09/28 03:45:21;;;;;;;11.77;10.57;;;7.30;92.90;;;;;;5013728;28;20594;-87
2022/09/28 03:47:47;;;;;;;14.47;10.40;;;7.20;92.80;;;;;;5012389;28;20219;-87
2022/09/28 03:50:13;;;;;;;19.97;11.00;;;7.20;92.90;;;;;;5012507;28;20277;-86
2022/09/28 03:52:39;;;;;;;13.67;12.20;;;7.20;92.90;;;;;;5013584;28;20208;-86
2022/09/28 03:55:05;;;;;;;14.73;10.43;;;7.10;92.90;;;;;;5014099;28;20666;-86
2022/09/28 03:57:30;;;;;;;12.67;11.03;;;7.10;93.00;;;;;;5012455;28;20178;-86
2022/09/28 03:59:56;;;;;;;15.97;10.57;;;7.00;93.00;;;;;;5013945;28;20259;-87
2022/09/28 04:02:21;;;;;;;13.20;10.67;;;7.00;93.10;;;;;;5014053;28;20197;-86
2022/09/28 04:04:47;;;;;;;20.13;10.77;;;7.10;93.20;;;;;;5012264;28;20247;-86
2022/09/28 04:07:12;;;;;;;14.47;11.03;;;7.10;93.20;;;;;;5012513;28;20178;-87
2022/09/28 04:09:38;;;;;;;11.60;10.50;;;7.20;93.30;;;;;;5012419;28;20227;-86
2022/09/28 04:12:03;;;;;;;11.47;10.43;;;7.20;93.20;;;;;;5012377;28;20194;-86
2022/09/28 04:14:29;;;;;;;11.63;10.53;;;7.10;93.10;;;;;;5012373;28;20601;-86
2022/09/28 04:16:54;;;;;;;11.60;9.93;;;7.10;93.20;;;;;;5013892;28;20209;-86
2022/09/28 04:19:21;;;;;;;11.83;10.20;;;7.10;93.10;;;;;;5012175;28;20592;-86
2022/09/28 04:21:47;;;;;;;11.97;10.77;;;7.10;93.10;;;;;;5012044;28;20208;-86
2022/09/28 04:24:13;;;;;;;17.97;11.37;;;7.10;93.10;;;;;;5013366;28;20247;-86
2022/09/28 04:26:39;;;;;;;12.90;11.70;;;7.00;93.00;;;;;;5012148;28;20184;-87
2022/09/28 04:29:17;;;;;;;14.00;12.60;;;7.00;93.10;;;;;;5012074;28;20197;-86
2022/09/28 04:31:51;;;;;;;15.23;13.07;;;6.90;93.10;;;;;;5012098;28;20254;-86
2022/09/28 04:34:21;;;;;;;16.27;14.57;;;6.80;93.20;;;;;;5012019;28;20177;-86
2022/09/28 04:36:47;;;;;;;15.53;13.93;;;6.80;93.30;;;;;;5012119;28;20182;-87
2022/09/28 04:39:14;;;;;;;18.23;14.93;;;6.80;93.30;;;;;;5012673;28;20260;-87
2022/09/28 04:41:41;;;;;;;16.23;14.60;;;6.90;93.40;;;;;;5017050;28;20687;-86
2022/09/28 04:44:07;;;;;;;17.03;15.23;;;6.90;93.50;;;;;;5015699;28;20327;-87
2022/09/28 04:46:33;;;;;;;22.43;14.83;;;6.90;93.50;;;;;;5015614;28;20180;-86
2022/09/28 04:48:58;;;;;;;19.43;14.37;;;6.90;93.50;;;;;;5015543;28;20170;-86
2022/09/28 04:51:24;;;;;;;18.63;16.10;;;6.90;93.60;;;;;;5017030;28;20605;-86
2022/09/28 04:53:50;;;;;;;17.63;15.73;;;7.00;93.70;;;;;;5015929;28;20672;-87
2022/09/28 04:56:16;;;;;;;20.70;16.10;;;6.90;93.60;;;;;;5015834;28;20215;-87
2022/09/28 04:58:42;;;;;;;20.20;15.37;;;7.00;93.70;;;;;;5015688;28;20264;-87
2022/09/28 05:01:12;;;;;;;17.27;15.57;;;7.00;93.70;;;;;;5016666;28;20178;-86
2022/09/28 05:03:37;;;;;;;16.43;14.73;;;7.00;93.70;;;;;;5017225;28;20193;-87
2022/09/28 05:06:04;;;;;;;16.77;15.17;;;7.10;93.80;;;;;;5017088;28;20605;-86
2022/09/28 05:08:29;;;;;;;18.50;16.37;;;7.20;93.80;;;;;;5016725;28;20192;-87
2022/09/28 05:11:06;;;;;;;17.87;16.13;;;7.10;93.70;;;;;;5015321;28;20655;-87
2022/09/28 05:13:39;;;;;;;19.73;17.63;;;7.00;93.70;;;;;;5015754;28;20568;-87
2022/09/28 05:16:05;;;;;;;21.30;18.30;;;7.10;93.80;;;;;;5016730;28;20169;-86
2022/09/28 05:18:30;;;;;;;22.97;18.73;;;7.10;93.80;;;;;;5016534;28;20181;-86
2022/09/28 05:20:56;;;;;;;24.50;18.73;;;7.10;93.90;;;;;;5015115;28;20209;-86
2022/09/28 05:23:21;;;;;;;21.77;19.13;;;7.00;93.90;;;;;;5016149;28;20225;-87
2022/09/28 05:25:47;;;;;;;22.93;19.70;;;7.00;94.00;;;;;;5016798;28;20549;-86
2022/09/28 05:28:12;;;;;;;23.13;19.87;;;7.00;94.00;;;;;;5015157;28;20180;-86
2022/09/28 05:30:38;;;;;;;24.93;20.83;;;7.00;94.10;;;;;;5015202;28;20185;-86
2022/09/28 05:33:04;;;;;;;24.10;20.77;;;7.10;94.20;;;;;;5014907;28;20201;-86
2022/09/28 05:35:29;;;;;;;25.60;20.63;;;7.00;94.10;;;;;;5015175;28;20178;-86
2022/09/28 05:37:56;;;;;;;30.83;20.93;;;7.00;94.20;;;;;;5016678;28;20636;-87
2022/09/28 05:40:22;;;;;;;23.10;20.60;;;7.00;94.30;;;;;;5015044;28;20552;-87
2022/09/28 05:42:48;;;;;;;26.57;21.50;;;7.00;94.30;;;;;;5014937;28;20205;-87
2022/09/28 05:45:13;;;;;;;27.90;20.87;;;7.10;94.30;;;;;;5016158;28;20341;-87
2022/09/28 05:47:41;;;;;;;22.77;20.37;;;7.00;94.40;;;;;;5015355;28;20184;-86
2022/09/28 05:50:10;;;;;;;26.63;21.10;;;7.00;94.40;;;;;;5016406;28;20176;-87
2022/09/28 05:52:38;;;;;;;25.97;20.60;;;7.10;94.40;;;;;;5015329;28;20204;-86
2022/09/28 05:55:05;;;;;;;27.37;21.50;;;7.00;94.40;;;;;;5014879;28;20181;-87
2022/09/28 05:57:31;;;;;;;26.57;21.83;;;6.90;94.50;;;;;;5014800;28;20185;-85
2022/09/28 05:59:56;;;;;;;34.60;23.80;;;6.80;94.60;;;;;;5014729;28;20193;-86
2022/09/28 06:02:22;;;;;;;28.40;22.07;;;6.90;94.70;;;;;;5016328;28;20229;-87
2022/09/28 06:04:49;;;;;;;31.37;23.00;;;6.80;94.70;;;;;;5014933;28;20201;-87
2022/09/28 06:07:16;;;;;;;29.83;24.40;;;6.80;94.80;;;;;;5015952;28;20235;-86
2022/09/28 06:09:41;;;;;;;34.97;25.90;;;6.90;94.90;;;;;;5015770;28;20204;-86
2022/09/28 06:12:07;;;;;;;31.57;25.57;;;7.00;94.90;;;;;;5016079;28;20193;-86
2022/09/28 06:14:32;;;;;;;36.70;26.93;;;6.90;94.80;;;;;;5016290;28;20611;-86
2022/09/28 06:16:58;;;;;;;37.53;26.30;;;7.00;94.90;;;;;;5015637;28;20186;-87
2022/09/28 06:19:23;;;;;;;33.00;24.87;;;7.00;95.00;;;;;;5016151;28;20181;-87
2022/09/28 06:21:49;;;;;;;32.00;24.97;;;7.00;95.00;;;;;;5015683;28;20335;-87
2022/09/28 06:24:14;;;;;;;36.33;26.27;;;7.00;95.00;;;;;;5015653;28;20201;-87
2022/09/28 06:26:40;;;;;;;40.80;27.80;;;7.10;95.00;;;;;;5014307;28;20180;-86
2022/09/28 06:29:05;;;;;;;43.17;28.37;;;7.00;95.00;;;;;;5014339;28;20598;-86
2022/09/28 06:31:31;;;;;;;44.63;28.60;;;7.10;95.10;;;;;;5015551;28;20283;-86
2022/09/28 06:33:56;;;;;;;40.73;27.47;;;7.20;95.10;;;;;;5016179;28;20177;-88
2022/09/28 06:36:22;;;;;;;44.30;32.03;;;7.20;95.10;;;;;;5014561;28;20181;-86
2022/09/28 06:38:48;;;;;;;38.70;30.13;;;7.30;95.10;;;;;;5014442;28;20264;-86
2022/09/28 06:41:14;;;;;;;40.37;29.53;;;7.40;95.20;;;;;;5015931;28;20178;-87
2022/09/28 06:43:39;;;;;;;41.30;30.07;;;7.60;95.20;;;;;;5014362;28;20698;-87
2022/09/28 06:46:07;;;;;;;36.77;27.97;;;7.60;95.20;;;;;;5015983;28;20177;-86
2022/09/28 06:48:32;;;;;;;36.77;27.07;;;7.60;95.20;;;;;;5014357;28;20649;-87
2022/09/28 06:50:59;;;;;;;35.63;27.80;;;7.60;95.10;;;;;;5015977;28;20170;-86
2022/09/28 06:53:27;;;;;;;36.00;26.87;;;7.70;95.20;;;;;;5014203;28;20179;-86
2022/09/28 06:55:52;;;;;;;38.73;30.10;;;7.60;95.10;;;;;;5015441;28;20545;-87
2022/09/28 06:58:19;;;;;;;37.73;27.53;;;7.80;95.20;;;;;;5014297;28;20173;-87
2022/09/28 07:00:47;;;;;;;38.20;27.00;;;7.70;95.10;;;;;;5014031;28;20177;-87
2022/09/28 07:03:15;;;;;;;36.60;27.13;;;7.80;95.10;;;;;;5015066;28;20628;-86
2022/09/28 07:05:44;;;;;;;37.50;27.40;;;7.80;95.10;;;;;;5015705;28;20236;-86
2022/09/28 07:08:10;;;;;;;39.27;27.97;;;7.70;94.90;;;;;;5015677;28;20189;-87
2022/09/28 07:10:41;;;;;;;42.80;30.30;;;7.80;95.00;;;;;;5014721;28;20177;-87
2022/09/28 07:13:06;;;;;;;34.67;28.23;;;7.80;95.00;;;;;;5015121;28;20201;-86
2022/09/28 07:15:32;;;;;;;33.47;26.70;;;7.80;94.90;;;;;;5015953;28;20166;-87
2022/09/28 07:18:02;;;;;;;33.60;26.20;;;7.80;94.90;;;;;;5015637;28;20220;-87
2022/09/28 07:20:28;;;;;;;35.03;27.70;;;7.90;94.90;;;;;;5016165;28;20303;-87
2022/09/28 07:23:00;;;;;;;35.83;26.47;;;7.80;94.80;;;;;;5017301;28;20200;-87
2022/09/28 07:25:30;;;;;;;33.70;27.33;;;7.80;94.70;;;;;;5015640;28;20259;-86
2022/09/28 07:27:58;;;;;;;36.73;26.07;;;7.90;94.80;;;;;;5014380;28;20177;-86
2022/09/28 07:30:25;;;;;;;32.87;26.03;;;7.90;94.70;;;;;;5014387;28;20197;-87
2022/09/28 07:32:51;;;;;;;35.23;25.73;;;8.00;94.70;;;;;;5015937;28;20196;-86
2022/09/28 07:35:16;;;;;;;38.00;26.80;;;8.30;94.80;;;;;;5014791;28;20177;-86
2022/09/28 07:37:42;;;;;;;36.20;26.93;;;8.30;94.70;;;;;;5016158;28;20181;-86
2022/09/28 07:42:52;;;;;;;31.97;25.83;;;8.20;94.20;;;;;;5016757;28;20208;-87
2022/09/28 07:45:23;;;;;;;28.73;22.80;;;8.30;94.40;;;;;;5015165;28;20276;-87
2022/09/28 07:47:49;;;;;;;32.63;25.20;;;8.10;94.10;;;;;;5014871;28;20169;-87
2022/09/28 07:50:16;;;;;;;30.43;23.30;;;8.30;94.20;;;;;;5013989;28;20174;-85
2022/09/28 07:52:44;;;;;;;32.97;25.03;;;8.30;94.00;;;;;;5014163;28;20251;-85
2022/09/28 07:55:09;;;;;;;29.27;23.60;;;8.40;94.10;;;;;;5016493;28;20169;-89
2022/09/28 07:57:35;;;;;;;28.67;21.90;;;8.60;94.10;;;;;;5016567;28;20694;-88
2022/09/28 08:00:01;;;;;;;28.17;23.20;;;8.70;94.10;;;;;;5015180;28;20189;-88
2022/09/28 08:02:27;;;;;;;29.83;21.33;;;8.70;93.90;;;;;;5015123;28;20288;-87
2022/09/28 08:04:52;;;;;;;32.70;24.90;;;8.60;93.60;;;;;;5014887;28;20690;-88
2022/09/28 08:07:18;;;;;;;28.67;20.33;;;8.60;93.40;;;;;;5015503;28;20264;-87
2022/09/28 08:09:44;;;;;;;26.73;20.80;;;8.80;93.20;;;;;;5016100;28;20177;-88
2022/09/28 08:12:12;;;;;;;27.07;21.97;;;8.80;93.30;;;;;;5014423;28;20675;-86
2022/09/28 08:14:38;;;;;;;28.20;21.27;;;8.80;93.30;;;;;;5016864;28;20652;-87
2022/09/28 08:17:05;;;;;;;26.40;21.33;;;8.80;93.20;;;;;;5018560;28;20181;-87
2022/09/28 08:22:17;;;;;;;24.97;20.43;;;8.90;93.00;;;;;;5018855;28;20212;-87
2022/09/28 08:24:44;;;;;;;27.33;20.97;;;8.90;92.70;;;;;;5018566;28;20547;-87
2022/09/28 08:27:10;;;;;;;29.93;22.57;;;8.90;92.80;;;;;;5018702;28;20177;-88
2022/09/28 08:29:36;;;;;;;28.40;22.10;;;9.30;93.00;;;;;;5018579;28;20686;-88
2022/09/28 08:32:05;;;;;;;24.73;21.47;;;9.40;93.00;;;;;;5018595;28;20181;-87
2022/09/28 08:34:30;;;;;;;24.77;19.80;;;9.30;92.60;;;;;;5017876;28;20213;-87
2022/09/28 08:36:56;;;;;;;26.07;21.47;;;9.20;92.40;;;;;;5018289;28;20246;-87
2022/09/28 08:39:21;;;;;;;30.10;20.30;;;9.20;92.10;;;;;;5019577;28;20174;-87
2022/09/28 08:42:03;;;;;;;30.90;22.67;;;9.00;91.70;;;;;;5018402;28;20578;-88
2022/09/28 08:44:40;;;;;;;21.80;19.20;;;9.10;91.70;;;;;;5018645;28;20197;-88
2022/09/28 08:50:06;;;;;;;23.00;18.87;;;9.40;91.60;;;;;;5017363;28;20180;-88
2022/09/28 08:52:38;;;;;;;23.00;19.63;;;9.80;91.70;;;;;;5015850;28;20287;-87
2022/09/28 08:55:22;;;;;;;25.83;19.87;;;9.50;91.10;;;;;;5017274;28;20169;-88
2022/09/28 08:57:54;;;;;;;23.60;17.77;;;9.80;91.50;;;;;;5016955;28;20177;-87
2022/09/28 09:00:34;;;;;;;23.77;17.27;;;9.80;91.10;;;;;;5017868;28;20162;-87
2022/09/28 09:03:10;;;;;;;23.97;17.97;;;9.70;90.60;;;;;;5017246;28;20201;-87
2022/09/28 09:05:53;;;;;;;21.00;17.00;;;9.80;90.40;;;;;;5018299;28;20643;-87
2022/09/28 09:08:58;;;;;;;20.93;15.87;;;9.70;89.70;;;;;;5016788;28;20166;-87
2022/09/28 09:11:27;;;;;;;20.57;16.57;;;9.60;89.40;;;;;;5017127;28;20193;-86
2022/09/28 09:14:07;;;;;;;25.40;17.27;;;9.60;89.20;;;;;;5017805;28;20193;-87
2022/09/28 09:16:54;;;;;;;21.63;17.13;;;9.80;89.70;;;;;;5016292;28;20323;-86
2022/09/28 09:19:35;;;;;;;21.20;16.90;;;10.10;89.70;;;;;;5017823;28;20165;-87
2022/09/28 09:22:17;;;;;;;19.83;16.17;;;10.10;89.40;;;;;;5014979;28;20200;-87
2022/09/28 09:24:53;;;;;;;21.13;16.83;;;9.80;88.60;;;;;;5014961;28;20197;-87
2022/09/28 09:27:35;;;;;;;22.50;16.87;;;10.00;89.10;;;;;;5014033;28;20176;-87
2022/09/28 09:30:11;;;;;;;19.50;16.13;;;9.90;88.50;;;;;;5017246;28;20181;-87
2022/09/28 09:33:03;;;;;;;19.07;15.13;;;10.00;88.90;;;;;;5015398;28;20333;-88
2022/09/28 09:35:43;;;;;;;19.40;15.73;;;9.90;88.50;;;;;;5018423;28;20193;-88
2022/09/28 09:38:39;;;;;;;15.83;14.13;;;10.10;88.40;;;;;;5017120;28;20187;-88
2022/09/28 09:41:27;;;;;;;17.07;14.13;;;10.30;88.40;;;;;;5016356;28;20157;-87
2022/09/28 09:44:17;;;;;;;19.30;13.97;;;10.30;88.10;;;;;;5015296;28;20256;-87
2022/09/28 09:46:55;;;;;;;19.27;13.93;;;10.30;87.30;;;;;;5015079;28;20576;-88
2022/09/28 09:49:23;;;;;;;19.67;14.87;;;10.30;86.80;;;;;;5016950;28;20168;-88
2022/09/28 09:51:56;;;;;;;21.23;15.47;;;10.50;87.50;;;;;;5016780;28;20224;-88
2022/09/28 09:54:27;;;;;;;18.30;14.67;;;10.70;88.00;;;;;;5017003;28;20162;-88
2022/09/28 09:57:07;;;;;;;17.57;11.10;;;10.60;87.10;;;;;;5016809;28;20211;-88
2022/09/28 09:59:38;;;;;;;15.37;10.97;;;10.50;85.90;;;;;;5016483;28;20169;-88
2022/09/28 10:02:25;;;;;;;15.00;12.10;;;10.40;85.30;;;;;;5018196;28;20288;-87
2022/09/28 10:04:58;;;;;;;16.53;12.63;;;10.70;86.80;;;;;;5016022;28;20280;-90
2022/09/28 10:07:43;;;;;;;16.00;12.93;;;11.00;87.00;;;;;;5013917;28;20185;-89
2022/09/28 10:10:26;;;;;;;16.87;12.17;;;11.20;87.10;;;;;;5014639;28;20547;-90
2022/09/28 10:12:52;;;;;;;16.80;11.97;;;11.50;86.90;;;;;;5013956;28;20193;-90
2022/09/28 10:15:27;;;;;;;11.60;9.80;;;11.70;86.80;;;;;;5016105;28;20561;-91
2022/09/28 10:17:55;;;;;;;13.50;9.73;;;11.60;84.80;;;;;;5014968;28;20172;-89
2022/09/28 10:20:22;;;;;;;14.93;10.60;;;11.40;82.90;;;;;;5013722;28;20671;-89
2022/09/28 10:22:50;;;;;;;14.07;10.93;;;11.20;83.30;;;;;;5013984;28;20197;-89
2022/09/28 10:25:17;;;;;;;12.57;9.90;;;11.30;84.30;;;;;;5013744;28;20201;-88
2022/09/28 10:27:46;;;;;;;16.13;8.57;;;11.10;82.90;;;;;;5013815;28;20670;-90
2022/09/28 10:30:16;;;;;;;13.13;10.10;;;11.00;82.30;;;;;;5015162;28;20193;-89
2022/09/28 10:32:44;;;;;;;12.47;8.83;;;11.20;83.00;;;;;;5013662;28;20200;-90
2022/09/28 10:35:25;;;;;;;8.13;6.97;;;11.40;82.80;;;;;;5014152;28;20655;-90
2022/09/28 10:38:15;;;;;;;8.37;6.90;;;11.40;82.50;;;;;;5013205;28;20169;-89
2022/09/28 10:40:45;;;;;;;12.20;8.10;;;11.70;82.30;;;;;;5014568;28;20185;-89
2022/09/28 10:43:26;;;;;;;10.90;6.80;;;11.70;81.30;;;;;;5013344;28;20263;-89
2022/09/28 10:46:00;;;;;;;9.03;6.97;;;11.60;80.70;;;;;;5014667;28;20209;-89
2022/09/28 10:48:28;;;;;;;8.70;7.53;;;11.60;80.20;;;;;;5013150;28;20169;-89
2022/09/28 10:51:01;;;;;;;10.00;7.77;;;11.60;80.50;;;;;;5014352;28;20655;-90
2022/09/28 10:53:27;;;;;;;10.43;8.10;;;11.70;80.90;;;;;;5012996;28;20165;-89
2022/09/28 10:55:58;;;;;;;12.13;7.70;;;11.80;81.10;;;;;;5013200;28;20182;-90
2022/09/28 10:58:27;;;;;;;9.63;7.23;;;11.90;81.70;;;;;;5014237;28;20526;-89
2022/09/28 11:00:59;;;;;;;8.27;6.27;;;11.70;79.50;;;;;;5013103;28;20213;-90
2022/09/28 11:03:27;;;;;;;6.77;6.00;;;11.80;79.70;;;;;;5012882;28;20184;-90
2022/09/28 11:06:05;;;;;;;9.70;6.97;;;11.70;78.90;;;;;;5012940;28;20273;-89
2022/09/28 11:08:40;;;;;;;8.80;7.37;;;11.70;79.60;;;;;;5014130;28;20216;-90
2022/09/28 11:11:09;;;;;;;12.47;7.90;;;11.80;78.50;;;;;;5012702;28;20651;-89
2022/09/28 11:13:49;;;;;;;9.00;5.70;;;12.00;79.40;;;;;;5014092;28;20240;-89
2022/09/28 11:16:22;;;;;;;8.83;5.80;;;12.00;78.30;;;;;;5012995;28;20173;-89
2022/09/28 11:18:48;;;;;;;9.57;6.33;;;12.20;78.60;;;;;;5013245;28;20205;-89
2022/09/28 11:21:16;;;;;;;7.00;5.93;;;12.40;79.40;;;;;;5014246;28;20231;-90
2022/09/28 11:24:00;;;;;;;7.63;5.27;;;12.30;77.90;;;;;;5012703;28;20194;-90
2022/09/28 11:26:33;;;;;;;9.60;5.37;;;12.20;78.40;;;;;;5013500;28;20196;-89
2022/09/28 11:28:58;;;;;;;6.40;5.50;;;12.50;77.90;;;;;;5012457;28;20189;-90
2022/09/28 11:31:27;;;;;;;5.53;4.90;;;12.50;77.60;;;;;;5012551;28;20205;-90
2022/09/28 11:34:11;;;;;;;4.53;4.03;;;12.30;77.20;;;;;;5012512;28;20188;-89
2022/09/28 11:36:56;;;;;;;6.77;4.83;;;12.30;77.40;;;;;;5012544;28;20173;-89
2022/09/28 11:39:45;;;;;;;5.50;4.47;;;12.40;76.70;;;;;;5012492;28;20169;-89
2022/09/28 11:42:29;;;;;;;6.07;4.23;;;12.40;76.30;;;;;;5012518;28;20292;-90
2022/09/28 11:45:20;;;;;;;5.47;4.37;;;12.60;76.80;;;;;;5013920;28;20235;-90
2022/09/28 11:47:48;;;;;;;5.03;3.70;;;12.50;76.30;;;;;;5012531;28;20551;-89
2022/09/28 11:50:34;;;;;;;4.40;4.00;;;12.60;77.60;;;;;;5011886;28;20215;-89
2022/09/28 11:53:09;;;;;;;4.90;4.17;;;12.40;76.60;;;;;;5012247;28;20204;-89
2022/09/28 11:56:00;;;;;;;4.47;4.00;;;12.50;77.00;;;;;;5012300;28;20205;-90
2022/09/28 11:58:40;;;;;;;6.70;3.73;;;12.40;77.00;;;;;;4963417;28;20197;-90
2022/09/28 12:01:22;;;;;;;18.43;4.20;;;12.80;77.40;;;;;;5013356;28;20158;-89
2022/09/28 12:03:54;;;;;;;7.20;4.40;;;12.80;76.00;;;;;;5012649;28;20204;-89
2022/09/28 12:06:26;;;;;;;4.27;3.57;;;12.60;75.00;;;;;;5012305;28;20166;-89
2022/09/28 12:09:02;;;;;;;6.03;4.73;;;13.00;77.40;;;;;;5012476;28;20672;-88
2022/09/28 12:11:35;;;;;;;6.90;4.83;;;13.30;77.30;;;;;;5012302;28;20197;-89
2022/09/28 12:14:03;;;;;;;6.63;4.83;;;13.20;75.10;;;;;;5012455;28;20178;-89
2022/09/28 12:16:43;;;;;;;8.50;4.70;;;13.30;75.30;;;;;;5012531;28;20629;-89
2022/09/28 12:19:28;;;;;;;9.70;4.77;;;13.60;75.50;;;;;;5013828;28;20235;-89
2022/09/28 12:22:08;;;;;;;6.37;4.30;;;13.60;74.80;;;;;;5014248;28;20247;-88
2022/09/28 12:24:47;;;;;;;5.63;4.10;;;13.80;75.50;;;;;;5015369;28;20276;-89
2022/09/28 12:27:40;;;;;;;7.20;4.17;;;13.50;73.20;;;;;;5013065;28;20256;-90
2022/09/28 12:30:18;;;;;;;4.97;3.70;;;13.70;74.60;;;;;;5013819;28;20664;-88
2022/09/28 12:32:46;;;;;;;5.83;3.30;;;14.00;75.00;;;;;;5012014;28;20205;-88
2022/09/28 12:35:17;;;;;;;5.50;2.93;;;14.10;73.50;;;;;;5012234;28;20185;-88
2022/09/28 12:38:07;;;;;;;4.30;3.60;;;13.70;71.00;;;;;;5012357;28;20581;-89
2022/09/28 12:40:48;;;;;;;7.23;4.33;;;13.30;70.50;;;;;;5012030;28;20264;-89
2022/09/28 12:43:34;;;;;;;4.57;3.50;;;13.60;72.50;;;;;;5013171;28;20204;-89
2022/09/28 12:46:12;;;;;;;4.20;3.23;;;13.80;74.30;;;;;;5013147;28;20170;-89
2022/09/28 12:49:16;;;;;;;6.87;4.13;;;13.90;71.40;;;;;;5014051;28;20161;-91
2022/09/28 12:51:51;;;;;;;5.13;3.63;;;14.40;73.10;;;;;;5013879;28;20225;-91
2022/09/28 12:54:46;;;;;;;5.43;3.43;;;14.20;73.70;;;;;;5012183;28;20726;-90
2022/09/28 12:57:47;;;;;;;9.33;3.00;;;14.30;72.20;;;;;;5012200;28;20177;-89
2022/09/28 13:00:17;;;;;;;8.23;2.87;;;14.10;71.30;;;;;;5012213;28;20643;-90
2022/09/28 13:03:20;;;;;;;3.50;2.70;;;14.10;68.80;;;;;;5015538;28;20201;-90
2022/09/28 13:06:16;;;;;;;5.70;3.60;;;13.80;69.50;;;;;;5018091;28;20177;-89
2022/09/28 13:08:47;;;;;;;5.37;3.60;;;13.80;71.80;;;;;;5016250;28;20177;-89
2022/09/28 13:11:32;;;;;;;3.53;3.10;;;13.50;71.30;;;;;;5015337;28;20643;-90
2022/09/28 13:14:19;;;;;;;4.30;2.90;;;13.20;71.90;;;;;;5014995;28;20177;-90